createdAt,value
2023-03-23T15:59:46.699Z,6.03
2023-03-23T16:02:23.619Z,5.38
2023-03-23T16:04:50.864Z,5.10
2023-03-23T16:07:19.708Z,4.32
2023-03-23T16:09:46.405Z,5.85
2023-03-23T16:12:13.448Z,4.07
2023-03-23T16:14:40.983Z,5.32
2023-03-23T16:17:10.933Z,4.20
2023-03-23T16:19:38.263Z,5.05
2023-03-23T16:22:04.954Z,4.70
2023-03-23T16:24:31.601Z,5.05
2023-03-23T16:26:58.292Z,7.90
2023-03-23T16:29:46.769Z,5.82
2023-03-23T16:32:11.602Z,5.13
2023-03-23T16:34:38.949Z,5.15
2023-03-23T16:37:06.855Z,6.65
2023-03-23T16:39:33.646Z,6.25
2023-03-23T16:42:00.412Z,4.65
2023-03-23T16:44:27.085Z,4.43
2023-03-23T16:46:53.717Z,6.38
2023-03-23T16:49:20.436Z,5.93
2023-03-23T16:51:48.191Z,6.45
2023-03-23T16:54:14.845Z,7.25
2023-03-23T16:56:46.073Z,6.32
2023-03-23T16:59:16.127Z,8.25
2023-03-23T17:01:43.252Z,6.90
2023-03-23T17:04:09.990Z,5.25
2023-03-23T17:06:36.731Z,5.88
2023-03-23T17:09:03.548Z,5.10
2023-03-23T17:11:30.580Z,4.57
2023-03-23T17:13:57.502Z,5.93
2023-03-23T17:16:24.221Z,6.07
2023-03-23T17:18:50.955Z,4.28
2023-03-23T17:21:17.829Z,4.97
2023-03-23T17:23:44.540Z,6.82
2023-03-23T17:26:11.381Z,6.38
2023-03-23T17:28:38.122Z,4.72
2023-03-23T17:31:06.553Z,5.38
2023-03-23T17:33:33.294Z,5.35
2023-03-23T17:36:00.152Z,5.55
2023-03-23T17:38:27.022Z,5.95
2023-03-23T17:40:58.326Z,4.50
2023-03-23T17:43:25.051Z,7.05
2023-03-23T17:45:51.702Z,6.22
2023-03-23T17:48:18.349Z,5.93
2023-03-23T17:50:48.845Z,5.38
2023-03-23T17:53:15.691Z,5.88
2023-03-23T17:55:43.433Z,6.25
2023-03-23T17:58:10.334Z,5.70
2023-03-23T18:00:37.635Z,6.63
2023-03-23T18:03:04.315Z,5.25
2023-03-23T18:05:31.975Z,6.88
2023-03-23T18:07:58.704Z,5.85
2023-03-23T18:10:25.527Z,6.78
2023-03-23T18:12:52.191Z,6.10
2023-03-23T18:15:18.925Z,3.97
2023-03-23T18:17:48.257Z,4.03
2023-03-23T18:20:15.089Z,6.03
2023-03-23T18:22:41.996Z,7.90
2023-03-23T18:25:08.765Z,5.47
2023-03-23T18:27:35.654Z,5.13
2023-03-23T18:30:03.077Z,8.48
2023-03-23T18:32:30.960Z,10.60
2023-03-23T18:34:57.640Z,7.75
2023-03-23T18:37:24.298Z,8.25
2023-03-23T18:39:50.984Z,7.88
2023-03-23T18:42:17.691Z,8.98
2023-03-23T18:44:44.380Z,9.07
2023-03-23T18:47:11.022Z,9.23
2023-03-23T18:49:37.815Z,7.03
2023-03-23T18:52:04.732Z,11.00
2023-03-23T18:54:34.814Z,8.82
2023-03-23T18:57:02.176Z,8.88
2023-03-23T18:59:30.573Z,11.85
2023-03-23T19:01:57.783Z,7.60
2023-03-23T19:04:24.572Z,6.53
2023-03-23T19:06:51.213Z,5.75
2023-03-23T19:09:18.950Z,6.63
2023-03-23T19:11:47.219Z,5.97
2023-03-23T19:14:14.116Z,7.30
2023-03-23T19:16:41.417Z,8.38
2023-03-23T19:19:10.858Z,6.68
2023-03-23T19:21:39.617Z,5.55
2023-03-23T19:24:07.271Z,7.90
2023-03-23T19:26:44.420Z,8.60
2023-03-23T19:31:46.668Z,8.63
2023-03-23T19:34:13.512Z,8.23
2023-03-23T19:36:40.413Z,8.15
2023-03-23T19:39:07.354Z,9.98
2023-03-23T19:41:34.234Z,8.95
2023-03-23T19:44:01.346Z,7.13
2023-03-23T19:46:30.218Z,7.20
2023-03-23T19:48:58.094Z,7.50
2023-03-23T19:51:24.863Z,7.03
2023-03-23T19:53:52.029Z,6.45
2023-03-23T19:56:21.725Z,6.90
2023-03-23T19:58:48.545Z,7.82
2023-03-23T20:01:15.997Z,5.50
2023-03-23T20:03:43.365Z,5.38
2023-03-23T20:06:12.319Z,6.82
2023-03-23T20:08:43.857Z,7.50
2023-03-23T20:11:18.126Z,6.10
2023-03-23T20:13:45.328Z,7.72
2023-03-23T20:16:12.034Z,5.68
2023-03-23T20:18:38.907Z,5.18
2023-03-23T20:21:13.034Z,6.95
2023-03-23T20:23:40.690Z,8.95
2023-03-23T20:26:15.793Z,5.97
2023-03-23T20:28:42.731Z,6.40
2023-03-23T20:31:16.731Z,5.60
2023-03-23T20:33:49.131Z,6.15
2023-03-23T20:36:34.628Z,5.40
2023-03-23T20:39:06.025Z,5.97
2023-03-23T20:41:36.870Z,7.30
2023-03-23T20:44:08.092Z,4.03
2023-03-23T20:46:35.028Z,4.95
2023-03-23T20:49:01.952Z,4.25
2023-03-23T20:51:28.659Z,5.75
2023-03-23T20:53:55.659Z,5.05
2023-03-23T20:56:22.515Z,4.72
2023-03-23T20:58:49.189Z,5.03
2023-03-23T21:01:15.891Z,5.80
2023-03-23T21:03:43.378Z,5.85
2023-03-23T21:06:10.829Z,6.20
2023-03-23T21:08:39.408Z,4.00
2023-03-23T21:11:08.242Z,4.95
2023-03-23T21:13:35.129Z,4.35
2023-03-23T21:16:03.973Z,7.25
2023-03-23T21:18:31.283Z,5.90
2023-03-23T21:21:03.707Z,5.53
2023-03-23T21:23:30.773Z,8.23
2023-03-23T21:26:01.791Z,6.03
2023-03-23T21:28:28.547Z,15.38
2023-03-23T21:30:59.199Z,37.03
2023-03-23T21:33:26.078Z,34.95
2023-03-23T21:35:52.826Z,79.00
2023-03-23T21:38:19.947Z,93.15
2023-03-23T21:40:47.019Z,92.72
2023-03-23T21:43:14.581Z,90.50
2023-03-23T21:45:42.463Z,146.82
2023-03-23T21:48:09.993Z,191.70
2023-03-23T21:50:42.230Z,357.38
2023-03-23T21:53:12.960Z,528.08
2023-03-23T21:55:41.095Z,611.90
2023-03-23T21:58:09.566Z,554.08
2023-03-23T22:00:36.568Z,499.15
2023-03-23T22:03:04.671Z,586.55
2023-03-23T22:05:33.065Z,710.10
2023-03-23T22:07:59.940Z,661.50
2023-03-23T22:10:26.643Z,888.10
2023-03-23T22:12:55.606Z,812.03
2023-03-23T22:15:27.678Z,1019.42
2023-03-23T22:17:55.181Z,1133.30
2023-03-23T22:20:21.938Z,900.20
2023-03-23T22:22:48.721Z,748.90
2023-03-23T22:25:15.447Z,1192.65
2023-03-23T22:27:42.772Z,1055.88
2023-03-23T22:30:09.845Z,1010.08
2023-03-23T22:32:36.780Z,921.63
2023-03-23T22:35:03.783Z,1122.65
2023-03-23T22:37:30.502Z,966.78
2023-03-23T22:39:57.145Z,1310.78
2023-03-23T22:42:23.852Z,1242.97
2023-03-23T22:44:50.751Z,1066.25
2023-03-23T22:47:17.804Z,1545.10
2023-03-23T22:49:44.609Z,1782.43
2023-03-23T22:52:11.456Z,982.65
2023-03-23T22:54:38.233Z,1328.25
2023-03-23T22:57:04.946Z,1690.68
2023-03-23T22:59:31.662Z,1546.60
2023-03-23T23:01:58.364Z,1121.28
2023-03-23T23:04:25.287Z,1023.08
2023-03-23T23:06:57.639Z,1399.10
2023-03-23T23:09:33.448Z,1496.70
2023-03-23T23:12:00.247Z,1262.78
2023-03-23T23:14:27.245Z,1408.43
2023-03-23T23:16:54.097Z,1388.00
2023-03-23T23:19:20.809Z,1381.47
2023-03-23T23:21:47.607Z,1384.72
2023-03-23T23:24:14.719Z,1271.65
2023-03-23T23:26:41.761Z,1292.18
2023-03-23T23:29:09.370Z,1345.45
2023-03-23T23:31:36.057Z,1385.18
2023-03-23T23:34:03.331Z,1364.95
2023-03-23T23:36:31.967Z,1445.22
2023-03-23T23:38:59.694Z,1723.80
2023-03-23T23:41:27.134Z,1507.25
2023-03-23T23:43:53.890Z,1452.50
2023-03-23T23:46:20.882Z,1772.55
2023-03-23T23:48:47.756Z,1488.35
2023-03-23T23:51:16.431Z,1555.55
2023-03-23T23:53:44.274Z,1658.18
2023-03-23T23:56:11.674Z,1725.05
2023-03-23T23:58:38.340Z,1629.53
